sensor_id;sensor_type;location;lat;lon;timestamp;P1;durP1;ratioP1;P2;durP2;ratioP2
26106;SDS011;13866;50.748;12.630;2023-04-22T00:00:04;14.20;;;5.40;;
26106;SDS011;13866;50.748;12.630;2023-04-22T00:02:30;12.90;;;5.17;;
26106;SDS011;13866;50.748;12.630;2023-04-22T00:04:56;6.10;;;5.70;;
26106;SDS011;13866;50.748;12.630;2023-04-22T00:07:21;9.93;;;6.10;;
26106;SDS011;13866;50.748;12.630;2023-04-22T00:09:47;8.57;;;5.80;;
26106;SDS011;13866;50.748;12.630;2023-04-22T00:12:13;10.43;;;4.97;;
26106;SDS011;13866;50.748;12.630;2023-04-22T00:14:39;13.30;;;6.37;;
26106;SDS011;13866;50.748;12.630;2023-04-22T00:17:05;6.50;;;6.10;;
26106;SDS011;13866;50.748;12.630;2023-04-22T00:19:33;8.00;;;5.23;;
26106;SDS011;13866;50.748;12.630;2023-04-22T00:21:59;8.10;;;6.00;;
26106;SDS011;13866;50.748;12.630;2023-04-22T00:24:24;7.33;;;5.47;;
26106;SDS011;13866;50.748;12.630;2023-04-22T00:26:51;8.97;;;5.00;;
26106;SDS011;13866;50.748;12.630;2023-04-22T00:29:16;9.83;;;5.80;;
26106;SDS011;13866;50.748;12.630;2023-04-22T00:31:41;4.87;;;4.70;;
26106;SDS011;13866;50.748;12.630;2023-04-22T00:34:07;8.70;;;5.53;;
26106;SDS011;13866;50.748;12.630;2023-04-22T00:36:32;10.60;;;4.97;;
26106;SDS011;13866;50.748;12.630;2023-04-22T00:38:58;6.00;;;5.60;;
26106;SDS011;13866;50.748;12.630;2023-04-22T00:41:23;5.00;;;4.80;;
26106;SDS011;13866;50.748;12.630;2023-04-22T00:43:50;12.23;;;5.33;;
26106;SDS011;13866;50.748;12.630;2023-04-22T00:46:17;7.07;;;6.20;;
26106;SDS011;13866;50.748;12.630;2023-04-22T00:48:43;5.00;;;4.80;;
26106;SDS011;13866;50.748;12.630;2023-04-22T00:51:09;9.83;;;5.67;;
26106;SDS011;13866;50.748;12.630;2023-04-22T00:53:35;9.23;;;5.53;;
26106;SDS011;13866;50.748;12.630;2023-04-22T00:56:00;4.90;;;4.70;;
26106;SDS011;13866;50.748;12.630;2023-04-22T00:58:27;6.97;;;5.73;;
26106;SDS011;13866;50.748;12.630;2023-04-22T01:00:53;5.20;;;4.80;;
26106;SDS011;13866;50.748;12.630;2023-04-22T01:03:19;5.80;;;5.40;;
26106;SDS011;13866;50.748;12.630;2023-04-22T01:05:46;5.50;;;4.97;;
26106;SDS011;13866;50.748;12.630;2023-04-22T01:08:13;6.57;;;6.13;;
26106;SDS011;13866;50.748;12.630;2023-04-22T01:10:40;8.30;;;7.50;;
26106;SDS011;13866;50.748;12.630;2023-04-22T01:13:05;11.10;;;6.13;;
26106;SDS011;13866;50.748;12.630;2023-04-22T01:15:31;6.63;;;6.03;;
26106;SDS011;13866;50.748;12.630;2023-04-22T01:17:57;8.90;;;6.20;;
26106;SDS011;13866;50.748;12.630;2023-04-22T01:20:25;7.10;;;5.50;;
26106;SDS011;13866;50.748;12.630;2023-04-22T01:22:53;6.03;;;5.37;;
26106;SDS011;13866;50.748;12.630;2023-04-22T01:25:21;7.33;;;5.90;;
26106;SDS011;13866;50.748;12.630;2023-04-22T01:27:47;5.17;;;5.00;;
26106;SDS011;13866;50.748;12.630;2023-04-22T01:30:13;7.67;;;6.30;;
26106;SDS011;13866;50.748;12.630;2023-04-22T01:32:40;8.37;;;5.83;;
26106;SDS011;13866;50.748;12.630;2023-04-22T01:35:06;6.23;;;5.73;;
26106;SDS011;13866;50.748;12.630;2023-04-22T01:37:33;5.13;;;4.90;;
26106;SDS011;13866;50.748;12.630;2023-04-22T01:39:58;5.57;;;5.13;;
26106;SDS011;13866;50.748;12.630;2023-04-22T01:42:25;5.77;;;5.10;;
26106;SDS011;13866;50.748;12.630;2023-04-22T01:44:50;7.50;;;6.17;;
26106;SDS011;13866;50.748;12.630;2023-04-22T01:47:16;5.47;;;5.03;;
26106;SDS011;13866;50.748;12.630;2023-04-22T01:49:42;8.67;;;5.30;;
26106;SDS011;13866;50.748;12.630;2023-04-22T01:52:07;5.77;;;5.47;;
26106;SDS011;13866;50.748;12.630;2023-04-22T01:54:32;8.00;;;5.43;;
26106;SDS011;13866;50.748;12.630;2023-04-22T01:56:58;6.43;;;5.17;;
26106;SDS011;13866;50.748;12.630;2023-04-22T01:59:24;6.10;;;5.60;;
26106;SDS011;13866;50.748;12.630;2023-04-22T02:01:50;10.17;;;5.57;;
26106;SDS011;13866;50.748;12.630;2023-04-22T02:04:15;5.57;;;5.27;;
26106;SDS011;13866;50.748;12.630;2023-04-22T02:06:41;5.90;;;5.37;;
26106;SDS011;13866;50.748;12.630;2023-04-22T02:09:06;9.43;;;5.90;;
26106;SDS011;13866;50.748;12.630;2023-04-22T02:11:32;8.30;;;5.33;;
26106;SDS011;13866;50.748;12.630;2023-04-22T02:13:57;9.37;;;6.10;;
26106;SDS011;13866;50.748;12.630;2023-04-22T02:16:23;13.17;;;5.90;;
26106;SDS011;13866;50.748;12.630;2023-04-22T02:18:48;7.77;;;5.80;;
26106;SDS011;13866;50.748;12.630;2023-04-22T02:21:13;12.23;;;6.17;;
26106;SDS011;13866;50.748;12.630;2023-04-22T02:23:39;7.50;;;5.57;;
26106;SDS011;13866;50.748;12.630;2023-04-22T02:26:05;5.73;;;5.43;;
26106;SDS011;13866;50.748;12.630;2023-04-22T02:28:31;7.03;;;6.00;;
26106;SDS011;13866;50.748;12.630;2023-04-22T02:30:57;9.03;;;4.80;;
26106;SDS011;13866;50.748;12.630;2023-04-22T02:33:23;5.43;;;4.93;;
26106;SDS011;13866;50.748;12.630;2023-04-22T02:35:48;10.73;;;5.93;;
26106;SDS011;13866;50.748;12.630;2023-04-22T02:38:14;6.80;;;6.10;;
26106;SDS011;13866;50.748;12.630;2023-04-22T02:40:39;12.00;;;5.33;;
26106;SDS011;13866;50.748;12.630;2023-04-22T02:43:05;8.10;;;6.30;;
26106;SDS011;13866;50.748;12.630;2023-04-22T02:45:31;5.30;;;5.00;;
26106;SDS011;13866;50.748;12.630;2023-04-22T02:47:56;10.73;;;6.73;;
26106;SDS011;13866;50.748;12.630;2023-04-22T02:50:22;7.37;;;5.63;;
26106;SDS011;13866;50.748;12.630;2023-04-22T02:52:47;6.50;;;5.33;;
26106;SDS011;13866;50.748;12.630;2023-04-22T02:55:13;5.60;;;5.20;;
26106;SDS011;13866;50.748;12.630;2023-04-22T02:57:38;4.90;;;4.73;;
26106;SDS011;13866;50.748;12.630;2023-04-22T03:00:04;9.00;;;5.17;;
26106;SDS011;13866;50.748;12.630;2023-04-22T03:02:31;5.10;;;4.90;;
26106;SDS011;13866;50.748;12.630;2023-04-22T03:04:57;5.00;;;4.80;;
26106;SDS011;13866;50.748;12.630;2023-04-22T03:07:22;5.00;;;4.60;;
26106;SDS011;13866;50.748;12.630;2023-04-22T03:09:48;5.73;;;5.43;;
26106;SDS011;13866;50.748;12.630;2023-04-22T03:12:13;6.70;;;5.40;;
26106;SDS011;13866;50.748;12.630;2023-04-22T03:14:39;6.67;;;5.90;;
26106;SDS011;13866;50.748;12.630;2023-04-22T03:17:04;11.13;;;5.47;;
26106;SDS011;13866;50.748;12.630;2023-04-22T03:19:30;15.93;;;5.27;;
26106;SDS011;13866;50.748;12.630;2023-04-22T03:21:55;7.20;;;4.77;;
26106;SDS011;13866;50.748;12.630;2023-04-22T03:24:22;9.30;;;5.73;;
26106;SDS011;13866;50.748;12.630;2023-04-22T03:26:47;6.93;;;6.27;;
26106;SDS011;13866;50.748;12.630;2023-04-22T03:29:13;6.23;;;5.83;;
26106;SDS011;13866;50.748;12.630;2023-04-22T03:31:38;7.60;;;6.00;;
26106;SDS011;13866;50.748;12.630;2023-04-22T03:34:03;6.47;;;5.43;;
26106;SDS011;13866;50.748;12.630;2023-04-22T03:36:30;5.63;;;5.10;;
26106;SDS011;13866;50.748;12.630;2023-04-22T03:38:55;6.63;;;5.00;;
26106;SDS011;13866;50.748;12.630;2023-04-22T03:41:21;6.33;;;6.03;;
26106;SDS011;13866;50.748;12.630;2023-04-22T03:43:47;6.57;;;5.63;;
26106;SDS011;13866;50.748;12.630;2023-04-22T03:46:12;6.33;;;5.83;;
26106;SDS011;13866;50.748;12.630;2023-04-22T03:48:38;6.30;;;5.67;;
26106;SDS011;13866;50.748;12.630;2023-04-22T03:51:03;6.97;;;6.13;;
26106;SDS011;13866;50.748;12.630;2023-04-22T03:53:29;11.60;;;6.60;;
26106;SDS011;13866;50.748;12.630;2023-04-22T03:55:54;18.67;;;6.10;;
26106;SDS011;13866;50.748;12.630;2023-04-22T03:58:20;6.93;;;5.60;;
26106;SDS011;13866;50.748;12.630;2023-04-22T04:00:45;6.80;;;6.30;;
26106;SDS011;13866;50.748;12.630;2023-04-22T04:03:11;8.03;;;6.83;;
26106;SDS011;13866;50.748;12.630;2023-04-22T04:05:36;5.77;;;5.23;;
26106;SDS011;13866;50.748;12.630;2023-04-22T04:08:02;6.87;;;6.13;;
26106;SDS011;13866;50.748;12.630;2023-04-22T04:10:27;8.07;;;6.83;;
26106;SDS011;13866;50.748;12.630;2023-04-22T04:12:53;6.70;;;6.30;;
26106;SDS011;13866;50.748;12.630;2023-04-22T04:15:19;5.83;;;5.70;;
26106;SDS011;13866;50.748;12.630;2023-04-22T04:17:45;8.40;;;5.50;;
26106;SDS011;13866;50.748;12.630;2023-04-22T04:20:12;9.63;;;8.17;;
26106;SDS011;13866;50.748;12.630;2023-04-22T04:22:38;33.80;;;17.80;;
26106;SDS011;13866;50.748;12.630;2023-04-22T04:25:03;27.47;;;15.87;;
26106;SDS011;13866;50.748;12.630;2023-04-22T04:27:30;22.73;;;12.20;;
26106;SDS011;13866;50.748;12.630;2023-04-22T04:29:56;13.70;;;8.87;;
26106;SDS011;13866;50.748;12.630;2023-04-22T04:32:22;9.27;;;8.13;;
26106;SDS011;13866;50.748;12.630;2023-04-22T04:34:48;11.40;;;8.80;;
26106;SDS011;13866;50.748;12.630;2023-04-22T04:37:14;11.07;;;6.47;;
26106;SDS011;13866;50.748;12.630;2023-04-22T04:39:40;15.77;;;6.57;;
26106;SDS011;13866;50.748;12.630;2023-04-22T04:42:07;4.13;;;3.80;;
26106;SDS011;13866;50.748;12.630;2023-04-22T04:44:33;4.40;;;3.97;;
26106;SDS011;13866;50.748;12.630;2023-04-22T04:46:59;8.47;;;4.33;;
26106;SDS011;13866;50.748;12.630;2023-04-22T04:49:25;5.47;;;4.13;;
26106;SDS011;13866;50.748;12.630;2023-04-22T04:51:54;10.60;;;4.33;;
26106;SDS011;13866;50.748;12.630;2023-04-22T04:54:20;5.40;;;3.77;;
26106;SDS011;13866;50.748;12.630;2023-04-22T04:56:45;9.10;;;5.00;;
26106;SDS011;13866;50.748;12.630;2023-04-22T04:59:11;5.60;;;4.90;;
26106;SDS011;13866;50.748;12.630;2023-04-22T05:01:37;5.93;;;4.63;;
26106;SDS011;13866;50.748;12.630;2023-04-22T05:04:02;8.17;;;4.50;;
26106;SDS011;13866;50.748;12.630;2023-04-22T05:06:28;13.70;;;5.07;;
26106;SDS011;13866;50.748;12.630;2023-04-22T05:08:53;9.13;;;4.60;;
26106;SDS011;13866;50.748;12.630;2023-04-22T05:11:19;7.93;;;4.60;;
26106;SDS011;13866;50.748;12.630;2023-04-22T05:13:44;3.60;;;3.50;;
26106;SDS011;13866;50.748;12.630;2023-04-22T05:16:10;6.67;;;4.20;;
26106;SDS011;13866;50.748;12.630;2023-04-22T05:18:36;4.87;;;4.57;;
26106;SDS011;13866;50.748;12.630;2023-04-22T05:21:01;6.97;;;3.50;;
26106;SDS011;13866;50.748;12.630;2023-04-22T05:23:28;5.97;;;3.60;;
26106;SDS011;13866;50.748;12.630;2023-04-22T05:25:54;7.13;;;4.20;;
26106;SDS011;13866;50.748;12.630;2023-04-22T05:28:20;11.80;;;6.00;;
26106;SDS011;13866;50.748;12.630;2023-04-22T05:30:45;10.33;;;4.90;;
26106;SDS011;13866;50.748;12.630;2023-04-22T05:33:11;6.37;;;4.60;;
26106;SDS011;13866;50.748;12.630;2023-04-22T05:35:36;9.97;;;4.10;;
26106;SDS011;13866;50.748;12.630;2023-04-22T05:38:02;9.10;;;4.50;;
26106;SDS011;13866;50.748;12.630;2023-04-22T05:40:27;7.47;;;4.57;;
26106;SDS011;13866;50.748;12.630;2023-04-22T05:42:53;7.93;;;3.90;;
26106;SDS011;13866;50.748;12.630;2023-04-22T05:45:18;10.73;;;4.17;;
26106;SDS011;13866;50.748;12.630;2023-04-22T05:47:44;5.10;;;3.70;;
26106;SDS011;13866;50.748;12.630;2023-04-22T05:50:09;6.50;;;4.57;;
26106;SDS011;13866;50.748;12.630;2023-04-22T05:52:35;5.23;;;3.90;;
26106;SDS011;13866;50.748;12.630;2023-04-22T05:55:00;13.70;;;3.83;;
26106;SDS011;13866;50.748;12.630;2023-04-22T05:57:26;3.87;;;3.77;;
26106;SDS011;13866;50.748;12.630;2023-04-22T05:59:51;5.43;;;4.00;;
26106;SDS011;13866;50.748;12.630;2023-04-22T06:02:17;5.03;;;4.47;;
26106;SDS011;13866;50.748;12.630;2023-04-22T06:04:42;3.70;;;3.23;;
26106;SDS011;13866;50.748;12.630;2023-04-22T06:07:08;9.63;;;4.17;;
26106;SDS011;13866;50.748;12.630;2023-04-22T06:09:33;4.23;;;3.97;;
26106;SDS011;13866;50.748;12.630;2023-04-22T06:11:59;4.43;;;4.10;;
26106;SDS011;13866;50.748;12.630;2023-04-22T06:14:25;5.13;;;3.60;;
26106;SDS011;13866;50.748;12.630;2023-04-22T06:16:51;12.83;;;5.03;;
26106;SDS011;13866;50.748;12.630;2023-04-22T06:19:17;3.97;;;3.67;;
26106;SDS011;13866;50.748;12.630;2023-04-22T06:21:43;5.50;;;3.93;;
26106;SDS011;13866;50.748;12.630;2023-04-22T06:24:08;9.60;;;3.73;;
26106;SDS011;13866;50.748;12.630;2023-04-22T06:26:35;6.90;;;3.70;;
26106;SDS011;13866;50.748;12.630;2023-04-22T06:29:01;12.63;;;4.40;;
26106;SDS011;13866;50.748;12.630;2023-04-22T06:31:29;3.73;;;3.63;;
26106;SDS011;13866;50.748;12.630;2023-04-22T06:33:57;13.83;;;3.77;;
26106;SDS011;13866;50.748;12.630;2023-04-22T06:36:23;7.00;;;4.07;;
26106;SDS011;13866;50.748;12.630;2023-04-22T06:38:52;7.50;;;5.23;;
26106;SDS011;13866;50.748;12.630;2023-04-22T06:41:26;7.37;;;3.63;;
26106;SDS011;13866;50.748;12.630;2023-04-22T06:43:52;13.23;;;3.90;;
26106;SDS011;13866;50.748;12.630;2023-04-22T06:46:20;8.43;;;3.53;;
26106;SDS011;13866;50.748;12.630;2023-04-22T06:48:51;10.40;;;3.80;;
26106;SDS011;13866;50.748;12.630;2023-04-22T06:51:23;8.03;;;4.03;;
26106;SDS011;13866;50.748;12.630;2023-04-22T06:53:49;12.53;;;4.00;;
26106;SDS011;13866;50.748;12.630;2023-04-22T06:56:18;5.97;;;3.80;;
26106;SDS011;13866;50.748;12.630;2023-04-22T06:58:55;3.60;;;3.40;;
26106;SDS011;13866;50.748;12.630;2023-04-22T07:01:21;3.80;;;3.60;;
26106;SDS011;13866;50.748;12.630;2023-04-22T07:03:46;5.53;;;2.77;;
26106;SDS011;13866;50.748;12.630;2023-04-22T07:06:12;5.23;;;3.63;;
26106;SDS011;13866;50.748;12.630;2023-04-22T07:08:38;4.53;;;3.27;;
26106;SDS011;13866;50.748;12.630;2023-04-22T07:11:08;10.30;;;3.70;;
26106;SDS011;13866;50.748;12.630;2023-04-22T07:13:35;4.77;;;3.40;;
26106;SDS011;13866;50.748;12.630;2023-04-22T07:16:04;18.10;;;4.30;;
26106;SDS011;13866;50.748;12.630;2023-04-22T07:18:30;5.03;;;4.50;;
26106;SDS011;13866;50.748;12.630;2023-04-22T07:20:56;7.87;;;3.33;;
26106;SDS011;13866;50.748;12.630;2023-04-22T07:23:24;6.43;;;3.37;;
26106;SDS011;13866;50.748;12.630;2023-04-22T07:25:51;2.97;;;2.77;;
26106;SDS011;13866;50.748;12.630;2023-04-22T07:28:17;4.80;;;3.37;;
26106;SDS011;13866;50.748;12.630;2023-04-22T07:30:43;6.33;;;3.13;;
26106;SDS011;13866;50.748;12.630;2023-04-22T07:33:10;11.60;;;3.30;;
26106;SDS011;13866;50.748;12.630;2023-04-22T07:35:38;7.67;;;3.37;;
26106;SDS011;13866;50.748;12.630;2023-04-22T07:38:04;6.93;;;3.80;;
26106;SDS011;13866;50.748;12.630;2023-04-22T07:40:30;5.23;;;3.17;;
26106;SDS011;13866;50.748;12.630;2023-04-22T07:42:55;7.70;;;3.17;;
26106;SDS011;13866;50.748;12.630;2023-04-22T07:45:21;4.30;;;3.93;;
26106;SDS011;13866;50.748;12.630;2023-04-22T07:47:49;12.63;;;3.50;;
26106;SDS011;13866;50.748;12.630;2023-04-22T07:50:15;6.73;;;3.53;;
26106;SDS011;13866;50.748;12.630;2023-04-22T07:52:41;22.63;;;4.70;;
26106;SDS011;13866;50.748;12.630;2023-04-22T07:55:07;6.77;;;3.00;;
26106;SDS011;13866;50.748;12.630;2023-04-22T07:57:33;3.60;;;3.20;;
26106;SDS011;13866;50.748;12.630;2023-04-22T08:00:03;3.83;;;3.00;;
26106;SDS011;13866;50.748;12.630;2023-04-22T08:02:33;3.77;;;3.40;;
26106;SDS011;13866;50.748;12.630;2023-04-22T08:04:59;3.07;;;2.97;;
26106;SDS011;13866;50.748;12.630;2023-04-22T08:07:25;3.63;;;3.10;;
26106;SDS011;13866;50.748;12.630;2023-04-22T08:09:51;2.93;;;2.83;;
26106;SDS011;13866;50.748;12.630;2023-04-22T08:12:20;3.50;;;3.30;;
26106;SDS011;13866;50.748;12.630;2023-04-22T08:14:51;4.80;;;3.50;;
26106;SDS011;13866;50.748;12.630;2023-04-22T08:17:22;4.90;;;2.50;;
26106;SDS011;13866;50.748;12.630;2023-04-22T08:19:47;7.30;;;3.60;;
26106;SDS011;13866;50.748;12.630;2023-04-22T08:22:16;12.67;;;3.10;;
26106;SDS011;13866;50.748;12.630;2023-04-22T08:24:45;6.80;;;2.67;;
26106;SDS011;13866;50.748;12.630;2023-04-22T08:27:11;2.77;;;2.67;;
26106;SDS011;13866;50.748;12.630;2023-04-22T08:29:37;4.17;;;3.70;;
26106;SDS011;13866;50.748;12.630;2023-04-22T08:32:02;6.47;;;3.30;;
26106;SDS011;13866;50.748;12.630;2023-04-22T08:34:28;11.10;;;3.47;;
26106;SDS011;13866;50.748;12.630;2023-04-22T08:36:54;7.43;;;2.97;;
26106;SDS011;13866;50.748;12.630;2023-04-22T08:39:20;8.33;;;2.70;;
26106;SDS011;13866;50.748;12.630;2023-04-22T08:41:46;5.37;;;2.90;;
26106;SDS011;13866;50.748;12.630;2023-04-22T08:44:14;11.40;;;3.30;;
26106;SDS011;13866;50.748;12.630;2023-04-22T08:46:42;3.07;;;2.83;;
26106;SDS011;13866;50.748;12.630;2023-04-22T08:49:16;5.47;;;2.80;;
26106;SDS011;13866;50.748;12.630;2023-04-22T08:51:43;8.23;;;3.30;;
26106;SDS011;13866;50.748;12.630;2023-04-22T08:54:16;3.30;;;3.00;;
26106;SDS011;13866;50.748;12.630;2023-04-22T08:56:43;2.93;;;2.73;;
26106;SDS011;13866;50.748;12.630;2023-04-22T08:59:10;4.07;;;3.60;;
26106;SDS011;13866;50.748;12.630;2023-04-22T09:01:40;8.13;;;3.00;;
26106;SDS011;13866;50.748;12.630;2023-04-22T09:04:06;15.30;;;2.87;;
26106;SDS011;13866;50.748;12.630;2023-04-22T09:06:34;2.63;;;2.43;;
26106;SDS011;13866;50.748;12.630;2023-04-22T09:09:04;6.73;;;2.80;;
26106;SDS011;13866;50.748;12.630;2023-04-22T09:11:30;7.00;;;3.40;;
26106;SDS011;13866;50.748;12.630;2023-04-22T09:13:57;6.10;;;2.40;;
26106;SDS011;13866;50.748;12.630;2023-04-22T09:16:26;4.57;;;2.80;;
26106;SDS011;13866;50.748;12.630;2023-04-22T09:18:55;2.60;;;2.17;;
26106;SDS011;13866;50.748;12.630;2023-04-22T09:21:23;3.00;;;2.80;;
26106;SDS011;13866;50.748;12.630;2023-04-22T09:24:12;4.53;;;2.73;;
26106;SDS011;13866;50.748;12.630;2023-04-22T09:26:47;6.77;;;2.90;;
26106;SDS011;13866;50.748;12.630;2023-04-22T09:29:13;2.57;;;2.37;;
26106;SDS011;13866;50.748;12.630;2023-04-22T09:31:40;2.77;;;2.20;;
26106;SDS011;13866;50.748;12.630;2023-04-22T09:34:14;5.37;;;3.57;;
26106;SDS011;13866;50.748;12.630;2023-04-22T09:36:40;2.43;;;2.23;;
26106;SDS011;13866;50.748;12.630;2023-04-22T09:39:07;3.40;;;2.77;;
26106;SDS011;13866;50.748;12.630;2023-04-22T09:41:36;2.37;;;2.00;;
26106;SDS011;13866;50.748;12.630;2023-04-22T09:44:03;6.33;;;2.00;;
26106;SDS011;13866;50.748;12.630;2023-04-22T09:46:32;2.50;;;2.23;;
26106;SDS011;13866;50.748;12.630;2023-04-22T09:48:59;2.20;;;2.20;;
26106;SDS011;13866;50.748;12.630;2023-04-22T09:51:25;2.33;;;2.20;;
26106;SDS011;13866;50.748;12.630;2023-04-22T09:53:56;5.90;;;2.30;;
26106;SDS011;13866;50.748;12.630;2023-04-22T09:56:44;2.40;;;2.30;;
26106;SDS011;13866;50.748;12.630;2023-04-22T10:01:50;3.23;;;2.10;;
26106;SDS011;13866;50.748;12.630;2023-04-22T10:04:16;2.17;;;1.97;;
26106;SDS011;13866;50.748;12.630;2023-04-22T10:06:45;2.40;;;2.23;;
26106;SDS011;13866;50.748;12.630;2023-04-22T10:09:11;3.07;;;2.33;;
26106;SDS011;13866;50.748;12.630;2023-04-22T10:11:37;6.20;;;2.47;;
26106;SDS011;13866;50.748;12.630;2023-04-22T10:14:04;6.83;;;2.70;;
26106;SDS011;13866;50.748;12.630;2023-04-22T10:16:30;4.33;;;2.70;;
26106;SDS011;13866;50.748;12.630;2023-04-22T10:18:57;2.53;;;2.33;;
26106;SDS011;13866;50.748;12.630;2023-04-22T10:21:25;4.27;;;2.63;;
26106;SDS011;13866;50.748;12.630;2023-04-22T10:23:53;2.37;;;2.27;;
26106;SDS011;13866;50.748;12.630;2023-04-22T10:26:37;5.33;;;2.60;;
26106;SDS011;13866;50.748;12.630;2023-04-22T10:29:08;3.80;;;3.00;;
26106;SDS011;13866;50.748;12.630;2023-04-22T10:31:40;3.30;;;3.00;;
26106;SDS011;13866;50.748;12.630;2023-04-22T10:34:10;2.30;;;2.30;;
26106;SDS011;13866;50.748;12.630;2023-04-22T10:36:53;3.07;;;2.77;;
26106;SDS011;13866;50.748;12.630;2023-04-22T10:39:28;2.73;;;2.63;;
26106;SDS011;13866;50.748;12.630;2023-04-22T10:41:55;2.10;;;2.10;;
26106;SDS011;13866;50.748;12.630;2023-04-22T10:44:28;2.77;;;2.37;;
26106;SDS011;13866;50.748;12.630;2023-04-22T10:46:55;2.50;;;2.40;;
26106;SDS011;13866;50.748;12.630;2023-04-22T10:49:23;7.47;;;2.30;;
26106;SDS011;13866;50.748;12.630;2023-04-22T10:51:54;5.90;;;2.30;;
26106;SDS011;13866;50.748;12.630;2023-04-22T10:57:03;5.03;;;2.00;;
26106;SDS011;13866;50.748;12.630;2023-04-22T10:59:31;2.30;;;1.93;;
26106;SDS011;13866;50.748;12.630;2023-04-22T11:02:20;7.30;;;2.27;;
26106;SDS011;13866;50.748;12.630;2023-04-22T11:04:47;2.40;;;2.30;;
26106;SDS011;13866;50.748;12.630;2023-04-22T11:09:52;12.23;;;2.60;;
26106;SDS011;13866;50.748;12.630;2023-04-22T11:17:32;2.60;;;2.50;;
26106;SDS011;13866;50.748;12.630;2023-04-22T11:19:58;2.57;;;2.37;;
26106;SDS011;13866;50.748;12.630;2023-04-22T11:22:24;4.10;;;2.60;;
26106;SDS011;13866;50.748;12.630;2023-04-22T11:24:53;7.87;;;2.43;;
26106;SDS011;13866;50.748;12.630;2023-04-22T11:27:20;2.97;;;2.80;;
26106;SDS011;13866;50.748;12.630;2023-04-22T11:30:00;3.60;;;2.40;;
26106;SDS011;13866;50.748;12.630;2023-04-22T11:32:31;5.80;;;3.00;;
26106;SDS011;13866;50.748;12.630;2023-04-22T11:34:57;3.50;;;2.40;;
26106;SDS011;13866;50.748;12.630;2023-04-22T11:37:26;5.03;;;2.20;;
26106;SDS011;13866;50.748;12.630;2023-04-22T11:39:52;2.63;;;2.00;;
26106;SDS011;13866;50.748;12.630;2023-04-22T11:42:38;1.93;;;1.90;;
26106;SDS011;13866;50.748;12.630;2023-04-22T11:45:04;2.67;;;2.53;;
26106;SDS011;13866;50.748;12.630;2023-04-22T11:47:31;2.10;;;2.00;;
26106;SDS011;13866;50.748;12.630;2023-04-22T11:49:57;2.77;;;2.37;;
26106;SDS011;13866;50.748;12.630;2023-04-22T11:52:39;2.80;;;2.70;;
26106;SDS011;13866;50.748;12.630;2023-04-22T11:55:34;3.10;;;2.80;;
26106;SDS011;13866;50.748;12.630;2023-04-22T11:58:06;2.57;;;2.37;;
26106;SDS011;13866;50.748;12.630;2023-04-22T12:00:38;2.43;;;2.33;;
26106;SDS011;13866;50.748;12.630;2023-04-22T12:03:07;2.67;;;2.53;;
26106;SDS011;13866;50.748;12.630;2023-04-22T12:08:12;2.67;;;2.47;;
26106;SDS011;13866;50.748;12.630;2023-04-22T12:10:53;2.33;;;2.23;;
26106;SDS011;13866;50.748;12.630;2023-04-22T12:13:25;3.50;;;2.50;;
26106;SDS011;13866;50.748;12.630;2023-04-22T12:15:57;2.30;;;2.20;;
26106;SDS011;13866;50.748;12.630;2023-04-22T12:19:06;5.10;;;2.40;;
26106;SDS011;13866;50.748;12.630;2023-04-22T12:21:13;2.17;;;2.07;;
26106;SDS011;13866;50.748;12.630;2023-04-22T12:23:47;3.97;;;2.30;;
26106;SDS011;13866;50.748;12.630;2023-04-22T12:26:15;8.50;;;2.60;;
26106;SDS011;13866;50.748;12.630;2023-04-22T12:28:41;2.77;;;2.57;;
26106;SDS011;13866;50.748;12.630;2023-04-22T12:31:09;2.70;;;1.87;;
26106;SDS011;13866;50.748;12.630;2023-04-22T12:33:35;2.10;;;2.00;;
26106;SDS011;13866;50.748;12.630;2023-04-22T12:36:02;2.77;;;2.57;;
26106;SDS011;13866;50.748;12.630;2023-04-22T12:38:28;2.13;;;2.13;;
26106;SDS011;13866;50.748;12.630;2023-04-22T12:40:54;5.43;;;2.10;;
26106;SDS011;13866;50.748;12.630;2023-04-22T12:43:19;7.50;;;2.23;;
26106;SDS011;13866;50.748;12.630;2023-04-22T12:45:45;2.60;;;2.40;;
26106;SDS011;13866;50.748;12.630;2023-04-22T12:48:10;10.13;;;1.80;;
26106;SDS011;13866;50.748;12.630;2023-04-22T12:50:36;3.03;;;2.80;;
26106;SDS011;13866;50.748;12.630;2023-04-22T12:53:01;2.00;;;1.73;;
26106;SDS011;13866;50.748;12.630;2023-04-22T12:55:27;2.20;;;2.17;;
26106;SDS011;13866;50.748;12.630;2023-04-22T12:57:53;3.10;;;2.20;;
26106;SDS011;13866;50.748;12.630;2023-04-22T13:00:20;5.37;;;2.03;;
26106;SDS011;13866;50.748;12.630;2023-04-22T13:02:47;4.53;;;2.10;;
26106;SDS011;13866;50.748;12.630;2023-04-22T13:05:13;4.97;;;2.40;;
26106;SDS011;13866;50.748;12.630;2023-04-22T13:07:39;1.80;;;1.70;;
26106;SDS011;13866;50.748;12.630;2023-04-22T13:10:11;3.03;;;2.70;;
26106;SDS011;13866;50.748;12.630;2023-04-22T13:12:39;1.77;;;1.67;;
26106;SDS011;13866;50.748;12.630;2023-04-22T13:15:05;1.93;;;1.87;;
26106;SDS011;13866;50.748;12.630;2023-04-22T13:17:32;2.43;;;2.43;;
26106;SDS011;13866;50.748;12.630;2023-04-22T13:19:58;2.17;;;1.97;;
26106;SDS011;13866;50.748;12.630;2023-04-22T13:22:23;2.13;;;1.90;;
26106;SDS011;13866;50.748;12.630;2023-04-22T13:24:49;3.60;;;3.40;;
26106;SDS011;13866;50.748;12.630;2023-04-22T13:27:15;4.33;;;1.90;;
26106;SDS011;13866;50.748;12.630;2023-04-22T13:29:40;2.00;;;1.90;;
26106;SDS011;13866;50.748;12.630;2023-04-22T13:32:07;2.93;;;2.13;;
26106;SDS011;13866;50.748;12.630;2023-04-22T13:34:33;2.70;;;2.10;;
26106;SDS011;13866;50.748;12.630;2023-04-22T13:36:58;2.90;;;2.67;;
26106;SDS011;13866;50.748;12.630;2023-04-22T13:39:24;3.90;;;2.17;;
26106;SDS011;13866;50.748;12.630;2023-04-22T13:41:50;4.77;;;2.30;;
26106;SDS011;13866;50.748;12.630;2023-04-22T13:44:16;2.87;;;2.00;;
26106;SDS011;13866;50.748;12.630;2023-04-22T13:46:42;5.53;;;2.37;;
26106;SDS011;13866;50.748;12.630;2023-04-22T13:49:08;5.13;;;2.67;;
26106;SDS011;13866;50.748;12.630;2023-04-22T13:51:34;1.80;;;1.70;;
26106;SDS011;13866;50.748;12.630;2023-04-22T13:54:01;1.57;;;1.53;;
26106;SDS011;13866;50.748;12.630;2023-04-22T13:56:27;1.83;;;1.73;;
26106;SDS011;13866;50.748;12.630;2023-04-22T13:58:53;14.77;;;6.10;;
26106;SDS011;13866;50.748;12.630;2023-04-22T14:01:19;4.30;;;1.93;;
26106;SDS011;13866;50.748;12.630;2023-04-22T14:03:44;2.20;;;2.10;;
26106;SDS011;13866;50.748;12.630;2023-04-22T14:06:11;2.03;;;2.03;;
26106;SDS011;13866;50.748;12.630;2023-04-22T14:08:37;2.13;;;2.03;;
26106;SDS011;13866;50.748;12.630;2023-04-22T14:11:03;2.73;;;2.17;;
26106;SDS011;13866;50.748;12.630;2023-04-22T14:13:30;4.17;;;2.07;;
26106;SDS011;13866;50.748;12.630;2023-04-22T14:15:55;1.40;;;1.40;;
26106;SDS011;13866;50.748;12.630;2023-04-22T14:18:21;8.17;;;1.80;;
26106;SDS011;13866;50.748;12.630;2023-04-22T14:20:47;4.77;;;1.87;;
26106;SDS011;13866;50.748;12.630;2023-04-22T14:23:13;1.97;;;1.87;;
26106;SDS011;13866;50.748;12.630;2023-04-22T14:25:39;2.57;;;1.73;;
26106;SDS011;13866;50.748;12.630;2023-04-22T14:28:04;3.33;;;1.97;;
26106;SDS011;13866;50.748;12.630;2023-04-22T14:30:30;2.57;;;1.93;;
26106;SDS011;13866;50.748;12.630;2023-04-22T14:32:56;7.40;;;1.80;;
26106;SDS011;13866;50.748;12.630;2023-04-22T14:35:22;11.03;;;2.90;;
26106;SDS011;13866;50.748;12.630;2023-04-22T14:37:48;6.23;;;2.60;;
26106;SDS011;13866;50.748;12.630;2023-04-22T14:40:13;8.23;;;2.13;;
26106;SDS011;13866;50.748;12.630;2023-04-22T14:42:39;2.80;;;2.10;;
26106;SDS011;13866;50.748;12.630;2023-04-22T14:45:05;3.83;;;2.47;;
26106;SDS011;13866;50.748;12.630;2023-04-22T14:47:31;3.33;;;2.33;;